createdAt,value
2023-05-16T00:00:41.903Z,9.23
2023-05-16T00:03:10.887Z,9.13
2023-05-16T00:05:38.270Z,9.90
2023-05-16T00:08:06.030Z,8.68
2023-05-16T00:10:33.163Z,9.23
2023-05-16T00:13:00.975Z,8.45
2023-05-16T00:15:30.101Z,8.48
2023-05-16T00:18:00.485Z,8.98
2023-05-16T00:20:28.591Z,8.90
2023-05-16T00:22:56.352Z,7.93
2023-05-16T00:25:23.703Z,8.40
2023-05-16T00:27:50.913Z,8.07
2023-05-16T00:30:18.075Z,8.57
2023-05-16T00:32:45.471Z,7.97
2023-05-16T00:35:12.719Z,8.73
2023-05-16T00:37:39.744Z,7.88
2023-05-16T00:40:07.890Z,8.05
2023-05-16T00:42:34.895Z,7.93
2023-05-16T00:45:02.032Z,8.32
2023-05-16T00:47:29.174Z,7.53
2023-05-16T00:49:56.595Z,8.02
2023-05-16T00:52:23.636Z,8.55
2023-05-16T00:54:52.255Z,8.90
2023-05-16T00:57:19.282Z,9.30
2023-05-16T00:59:46.960Z,9.40
2023-05-16T01:02:14.646Z,8.90
2023-05-16T01:04:42.060Z,9.00
2023-05-16T01:07:09.211Z,9.07
2023-05-16T01:09:36.541Z,9.15
2023-05-16T01:12:30.567Z,10.52
2023-05-16T01:15:09.796Z,8.13
2023-05-16T01:17:43.116Z,8.70
2023-05-16T01:20:34.853Z,9.10
2023-05-16T01:23:24.851Z,7.88
2023-05-16T01:26:09.822Z,9.70
2023-05-16T01:28:37.080Z,8.57
2023-05-16T01:31:04.163Z,8.07
2023-05-16T01:33:31.385Z,7.43
2023-05-16T01:36:24.797Z,8.05
2023-05-16T01:39:07.724Z,8.77
2023-05-16T01:42:01.461Z,7.68
2023-05-16T01:44:31.532Z,8.85
2023-05-16T01:47:00.469Z,8.77
2023-05-16T01:49:30.293Z,8.57
2023-05-16T01:52:10.734Z,11.93
2023-05-16T01:54:39.849Z,8.40
2023-05-16T01:57:08.575Z,8.63
2023-05-16T01:59:35.567Z,7.72
2023-05-16T02:02:02.874Z,8.38
2023-05-16T02:04:29.955Z,8.05
2023-05-16T02:06:57.155Z,8.85
2023-05-16T02:09:26.604Z,8.32
2023-05-16T02:11:54.279Z,9.35
2023-05-16T02:14:21.297Z,8.48
2023-05-16T02:16:48.858Z,8.32
2023-05-16T02:19:16.368Z,8.40
2023-05-16T02:21:43.400Z,8.07
2023-05-16T02:24:10.441Z,8.38
2023-05-16T02:26:37.547Z,8.25
2023-05-16T02:29:04.478Z,8.93
2023-05-16T02:31:32.809Z,9.27
2023-05-16T02:34:00.212Z,9.60
2023-05-16T02:36:27.361Z,8.07
2023-05-16T02:38:54.489Z,8.95
2023-05-16T02:41:22.506Z,7.85
2023-05-16T02:43:49.808Z,8.48
2023-05-16T02:46:28.230Z,8.23
2023-05-16T02:48:55.163Z,7.75
2023-05-16T02:51:23.386Z,8.82
2023-05-16T02:53:50.856Z,7.93
2023-05-16T02:56:17.827Z,7.57
2023-05-16T02:58:47.495Z,9.55
2023-05-16T03:01:15.083Z,7.57
2023-05-16T03:03:42.154Z,7.90
2023-05-16T03:06:09.611Z,7.72
2023-05-16T03:08:37.548Z,8.23
2023-05-16T03:11:04.711Z,7.65
2023-05-16T03:13:31.663Z,8.90
2023-05-16T03:15:58.872Z,9.13
2023-05-16T03:18:26.107Z,8.82
2023-05-16T03:20:58.822Z,8.90
2023-05-16T03:23:26.538Z,8.10
2023-05-16T03:25:53.639Z,9.45
2023-05-16T03:28:20.479Z,9.15
2023-05-16T03:30:47.600Z,8.35
2023-05-16T03:33:14.653Z,7.78
2023-05-16T03:35:42.229Z,10.07
2023-05-16T03:38:09.348Z,8.38
2023-05-16T03:40:36.280Z,9.43
2023-05-16T03:43:03.322Z,9.80
2023-05-16T03:45:31.956Z,9.20
2023-05-16T03:47:59.100Z,9.73
2023-05-16T03:50:26.666Z,9.65
2023-05-16T03:52:54.958Z,9.68
2023-05-16T03:55:22.063Z,9.70
2023-05-16T03:57:50.414Z,9.57
2023-05-16T04:00:17.459Z,9.48
2023-05-16T04:02:45.240Z,8.77
2023-05-16T04:05:14.096Z,10.23
2023-05-16T04:07:41.306Z,9.38
2023-05-16T04:10:09.134Z,10.60
2023-05-16T04:12:36.341Z,9.93
2023-05-16T04:15:04.608Z,9.48
2023-05-16T04:17:31.621Z,8.82
2023-05-16T04:19:58.593Z,9.27
2023-05-16T04:22:25.520Z,6.88
2023-05-16T04:24:52.556Z,9.45
2023-05-16T04:27:19.564Z,12.27
2023-05-16T04:29:46.435Z,7.85
2023-05-16T04:32:13.365Z,8.55
2023-05-16T04:34:41.584Z,7.38
2023-05-16T04:37:10.159Z,5.72
2023-05-16T04:39:37.186Z,6.75
2023-05-16T04:42:04.553Z,5.15
2023-05-16T04:44:31.932Z,8.93
2023-05-16T04:46:58.977Z,9.27
2023-05-16T04:49:26.330Z,9.48
2023-05-16T04:51:53.357Z,8.88
2023-05-16T04:54:20.299Z,9.82
2023-05-16T04:56:47.186Z,7.75
2023-05-16T04:59:14.011Z,8.50
2023-05-16T05:01:41.189Z,7.85
2023-05-16T05:04:08.266Z,9.25
2023-05-16T05:06:35.136Z,8.63
2023-05-16T05:09:01.950Z,6.50
2023-05-16T05:11:28.860Z,9.00
2023-05-16T05:13:55.891Z,8.00
2023-05-16T05:16:23.103Z,8.95
2023-05-16T05:18:50.147Z,8.13
2023-05-16T05:21:17.738Z,9.82
2023-05-16T05:23:44.761Z,7.80
2023-05-16T05:26:12.206Z,7.60
2023-05-16T05:28:40.896Z,7.47
2023-05-16T05:31:09.108Z,8.82
2023-05-16T05:33:35.971Z,9.55
2023-05-16T05:36:04.106Z,6.97
2023-05-16T05:38:31.768Z,8.77
2023-05-16T05:40:58.828Z,10.05
2023-05-16T05:43:26.086Z,9.10
2023-05-16T05:45:53.059Z,10.07
2023-05-16T05:48:19.907Z,9.55
2023-05-16T05:50:46.698Z,9.32
2023-05-16T05:53:13.732Z,9.75
2023-05-16T05:55:42.369Z,10.13
2023-05-16T05:58:09.480Z,10.77
2023-05-16T06:00:36.631Z,11.75
2023-05-16T06:03:03.595Z,12.20
2023-05-16T06:05:30.747Z,11.45
2023-05-16T06:07:57.832Z,10.98
2023-05-16T06:10:24.963Z,11.07
2023-05-16T06:12:52.543Z,10.85
2023-05-16T06:15:19.566Z,11.15
2023-05-16T06:17:46.460Z,11.05
2023-05-16T06:20:13.511Z,11.20
2023-05-16T06:22:40.270Z,11.38
2023-05-16T06:25:07.455Z,12.15
2023-05-16T06:27:34.363Z,11.98
2023-05-16T06:30:01.218Z,11.00
2023-05-16T06:32:28.141Z,12.13
2023-05-16T06:34:55.053Z,12.50
2023-05-16T06:37:23.905Z,12.27
2023-05-16T06:39:50.843Z,11.85
2023-05-16T06:42:18.096Z,12.45
2023-05-16T06:44:45.054Z,14.25
2023-05-16T06:47:12.366Z,12.75
2023-05-16T06:49:39.372Z,13.25
2023-05-16T06:52:06.489Z,13.00
2023-05-16T06:54:33.422Z,13.73
2023-05-16T06:57:00.442Z,14.90
2023-05-16T06:59:28.217Z,13.65
2023-05-16T07:01:55.793Z,13.13
2023-05-16T07:04:22.702Z,16.00
2023-05-16T07:06:49.637Z,15.38
2023-05-16T07:09:16.582Z,15.27
2023-05-16T07:11:43.454Z,15.85
2023-05-16T07:14:10.675Z,16.55
2023-05-16T07:16:37.548Z,16.65
2023-05-16T07:19:04.610Z,18.20
2023-05-16T07:21:31.748Z,17.83
2023-05-16T07:23:58.645Z,17.65
2023-05-16T07:26:25.515Z,17.48
2023-05-16T07:28:52.526Z,18.27
2023-05-16T07:31:19.595Z,18.15
2023-05-16T07:33:52.504Z,12.80
2023-05-16T07:36:19.570Z,12.90
2023-05-16T07:38:46.684Z,11.50
2023-05-16T07:41:13.924Z,11.85
2023-05-16T07:43:40.991Z,12.07
2023-05-16T07:46:07.962Z,11.15
2023-05-16T07:48:35.090Z,11.02
2023-05-16T07:51:02.098Z,11.80
2023-05-16T07:53:28.876Z,12.10
2023-05-16T07:55:56.698Z,12.00
2023-05-16T07:58:23.507Z,12.32
2023-05-16T08:00:51.128Z,17.70
2023-05-16T08:03:18.150Z,17.25
2023-05-16T08:05:45.390Z,17.88
2023-05-16T08:08:12.313Z,18.17
2023-05-16T08:10:39.153Z,16.23
2023-05-16T08:13:06.138Z,16.45
2023-05-16T08:15:32.996Z,15.68
2023-05-16T08:17:59.997Z,15.70
2023-05-16T08:20:27.093Z,15.90
2023-05-16T08:22:54.861Z,14.63
2023-05-16T08:25:21.852Z,14.48
2023-05-16T08:27:49.597Z,12.68
2023-05-16T08:30:16.592Z,10.75
2023-05-16T08:32:44.011Z,11.27
2023-05-16T08:35:11.529Z,11.48
2023-05-16T08:37:38.527Z,10.57
2023-05-16T08:40:08.506Z,11.52
2023-05-16T08:42:35.809Z,11.68
2023-05-16T08:45:03.489Z,10.05
2023-05-16T08:47:31.779Z,9.80
2023-05-16T08:49:59.218Z,10.13
2023-05-16T08:52:29.311Z,11.05
2023-05-16T08:55:09.170Z,11.32
2023-05-16T08:57:38.404Z,10.60
2023-05-16T09:00:12.297Z,11.02
2023-05-16T09:02:42.932Z,11.55
2023-05-16T09:05:12.307Z,9.68
2023-05-16T09:07:39.409Z,10.73
2023-05-16T09:10:07.626Z,9.20
2023-05-16T09:12:35.160Z,9.55
2023-05-16T09:15:03.147Z,9.35
2023-05-16T09:17:45.080Z,7.65
2023-05-16T09:20:17.624Z,6.60
2023-05-16T09:22:54.558Z,7.47
2023-05-16T09:25:30.240Z,6.55
2023-05-16T09:27:59.732Z,6.95
2023-05-16T09:30:31.889Z,7.10
2023-05-16T09:32:59.628Z,6.63
2023-05-16T09:35:43.320Z,7.35
2023-05-16T09:38:17.104Z,6.93
2023-05-16T09:40:45.808Z,6.85
2023-05-16T09:43:14.640Z,6.07
2023-05-16T09:45:41.593Z,6.10
2023-05-16T09:48:09.650Z,5.55
2023-05-16T09:50:37.873Z,5.40
2023-05-16T09:53:05.619Z,6.03
2023-05-16T09:55:33.062Z,5.93
2023-05-16T09:57:59.970Z,5.65
2023-05-16T10:00:31.877Z,4.13
2023-05-16T10:03:04.017Z,4.78
2023-05-16T10:05:33.072Z,5.30
2023-05-16T10:08:00.239Z,4.95
2023-05-16T10:10:27.177Z,6.25
2023-05-16T10:12:53.991Z,5.20
2023-05-16T10:15:21.056Z,5.20
2023-05-16T10:17:51.650Z,4.82
2023-05-16T10:20:18.794Z,5.93
2023-05-16T10:22:45.734Z,5.72
2023-05-16T10:25:27.066Z,5.60
2023-05-16T10:27:54.624Z,6.45
2023-05-16T10:30:21.796Z,5.13
2023-05-16T10:32:49.147Z,5.43
2023-05-16T10:35:16.261Z,6.38
2023-05-16T10:37:43.057Z,5.70
2023-05-16T10:40:10.433Z,7.32
2023-05-16T10:42:37.500Z,6.57
2023-05-16T10:45:31.360Z,5.63
2023-05-16T10:48:00.130Z,6.80
2023-05-16T10:50:36.236Z,6.65
2023-05-16T10:53:23.239Z,6.82
2023-05-16T10:55:59.525Z,7.25
2023-05-16T10:58:35.827Z,7.57
2023-05-16T11:01:16.437Z,7.03
2023-05-16T11:04:04.890Z,6.25
2023-05-16T11:06:35.427Z,7.20
2023-05-16T11:09:10.572Z,8.00
2023-05-16T11:11:43.156Z,6.32
2023-05-16T11:14:16.558Z,7.72
2023-05-16T11:16:45.966Z,6.68
2023-05-16T11:19:12.976Z,7.45
2023-05-16T11:22:24.052Z,5.60
2023-05-16T11:25:01.112Z,6.15
2023-05-16T11:27:43.490Z,9.55
2023-05-16T11:30:10.289Z,9.45
2023-05-16T11:32:38.615Z,9.20
2023-05-16T11:35:11.588Z,10.05
2023-05-16T11:37:40.763Z,10.25
2023-05-16T11:40:10.042Z,10.70
2023-05-16T11:42:39.932Z,9.32
2023-05-16T11:45:07.449Z,8.73
2023-05-16T11:47:36.618Z,9.68
2023-05-16T11:50:10.297Z,9.18
2023-05-16T11:52:37.812Z,9.73
2023-05-16T11:55:06.530Z,9.57
2023-05-16T11:57:36.509Z,9.82
2023-05-16T12:00:15.883Z,10.15
2023-05-16T12:02:43.959Z,10.18
2023-05-16T12:05:11.494Z,9.90
2023-05-16T12:07:38.856Z,9.65
2023-05-16T12:10:13.216Z,11.13
2023-05-16T12:12:42.261Z,9.27
2023-05-16T12:15:09.526Z,10.32
2023-05-16T12:17:37.838Z,9.73
2023-05-16T12:20:11.960Z,10.20
2023-05-16T12:22:43.612Z,10.38
2023-05-16T12:25:26.512Z,11.48
2023-05-16T12:27:59.489Z,11.13
2023-05-16T12:30:28.038Z,12.95
2023-05-16T12:32:58.885Z,12.52
2023-05-16T12:35:27.352Z,11.30
2023-05-16T12:37:54.538Z,13.80
2023-05-16T12:40:23.736Z,12.55
2023-05-16T12:45:19.452Z,13.35
2023-05-16T12:47:47.360Z,12.77
2023-05-16T12:50:15.184Z,13.48
2023-05-16T12:52:52.180Z,13.10
2023-05-16T12:55:20.653Z,13.57
2023-05-16T12:57:48.273Z,14.13
2023-05-16T13:00:16.853Z,13.73
2023-05-16T13:02:43.825Z,16.38
2023-05-16T13:05:11.229Z,15.48
2023-05-16T13:07:41.054Z,15.23
2023-05-16T13:10:12.798Z,16.05
2023-05-16T13:12:40.960Z,15.02
2023-05-16T13:15:08.866Z,14.50
2023-05-16T13:17:35.930Z,15.73
2023-05-16T13:20:05.623Z,14.35
2023-05-16T13:22:33.219Z,14.73
2023-05-16T13:25:00.950Z,16.55
2023-05-16T13:27:28.072Z,16.02
2023-05-16T13:29:55.196Z,16.20
2023-05-16T13:32:22.069Z,17.40
2023-05-16T13:34:49.437Z,15.18
2023-05-16T13:37:17.058Z,16.48
2023-05-16T13:39:43.886Z,15.98
2023-05-16T13:42:10.845Z,15.85
2023-05-16T13:44:38.015Z,16.75
2023-05-16T13:47:05.072Z,16.40
2023-05-16T13:49:31.894Z,17.15
2023-05-16T13:51:59.354Z,16.73
2023-05-16T13:54:26.802Z,15.90
2023-05-16T13:56:53.793Z,15.45
2023-05-16T13:59:31.894Z,16.63
2023-05-16T14:02:07.809Z,16.08
2023-05-16T14:04:34.735Z,15.57
2023-05-16T14:07:01.706Z,17.13
2023-05-16T14:09:28.710Z,15.10
2023-05-16T14:11:55.744Z,16.55
2023-05-16T14:14:22.584Z,15.82
2023-05-16T14:16:49.577Z,15.93
2023-05-16T14:19:19.438Z,16.30
2023-05-16T14:21:47.099Z,16.02
2023-05-16T14:24:14.150Z,13.77
2023-05-16T14:26:41.493Z,17.20
2023-05-16T14:29:08.517Z,14.32
2023-05-16T14:31:36.707Z,15.90
2023-05-16T14:34:04.440Z,14.30
2023-05-16T14:36:33.345Z,13.52
2023-05-16T14:39:00.918Z,12.55
2023-05-16T14:41:27.725Z,14.90
2023-05-16T14:43:55.621Z,14.35
2023-05-16T14:46:22.776Z,16.63
2023-05-16T14:48:49.760Z,14.73
2023-05-16T14:51:16.877Z,14.60
2023-05-16T14:53:46.055Z,12.98
2023-05-16T14:56:13.716Z,13.40
2023-05-16T14:58:40.905Z,13.38
2023-05-16T15:01:07.867Z,12.65
2023-05-16T15:03:46.976Z,12.65
2023-05-16T15:06:21.446Z,13.10
2023-05-16T15:08:48.346Z,11.93
2023-05-16T15:11:15.222Z,12.38
2023-05-16T15:13:42.281Z,12.30
2023-05-16T15:16:09.291Z,11.50
2023-05-16T15:18:36.508Z,11.82
2023-05-16T15:21:03.497Z,11.68
2023-05-16T15:23:30.421Z,11.48
2023-05-16T15:25:57.459Z,11.85
2023-05-16T15:28:24.259Z,13.73
2023-05-16T15:30:51.954Z,11.80
2023-05-16T15:33:19.008Z,12.57
2023-05-16T15:35:46.344Z,12.02
2023-05-16T15:38:13.480Z,12.00
2023-05-16T15:40:40.524Z,11.52
2023-05-16T15:43:07.507Z,11.90
2023-05-16T15:45:35.983Z,12.63
2023-05-16T15:48:04.541Z,13.32
2023-05-16T15:50:31.495Z,12.32
2023-05-16T15:52:58.698Z,12.35
2023-05-16T15:55:25.746Z,13.73
2023-05-16T15:57:57.105Z,12.80
2023-05-16T16:00:25.216Z,12.30
2023-05-16T16:02:52.739Z,11.65
2023-05-16T16:05:19.753Z,12.20
2023-05-16T16:07:46.676Z,12.50
2023-05-16T16:10:13.799Z,12.40
2023-05-16T16:12:40.765Z,12.23
2023-05-16T16:15:09.902Z,10.90
2023-05-16T16:17:36.978Z,11.00
2023-05-16T16:20:04.556Z,10.70
2023-05-16T16:22:31.657Z,10.15
2023-05-16T16:24:59.235Z,10.00
2023-05-16T16:27:26.389Z,9.75
2023-05-16T16:29:53.266Z,10.45
2023-05-16T16:32:20.144Z,9.50
2023-05-16T16:34:47.292Z,10.15
2023-05-16T16:37:14.366Z,10.30
2023-05-16T16:39:41.257Z,8.98
2023-05-16T16:42:08.356Z,8.07
2023-05-16T16:44:36.539Z,9.95
2023-05-16T16:47:03.464Z,9.20
2023-05-16T16:49:31.635Z,8.35
2023-05-16T16:51:59.044Z,8.82
2023-05-16T16:54:25.962Z,6.78
2023-05-16T16:56:52.917Z,8.43
2023-05-16T16:59:20.038Z,8.95
2023-05-16T17:01:47.152Z,8.35
2023-05-16T17:04:14.264Z,9.23
2023-05-16T17:06:41.410Z,9.18
2023-05-16T17:09:13.922Z,9.30
2023-05-16T17:11:42.033Z,9.45
2023-05-16T17:14:11.223Z,10.27
2023-05-16T17:16:41.073Z,9.63
2023-05-16T17:19:08.912Z,9.25
2023-05-16T17:21:37.059Z,10.68
2023-05-16T17:24:05.114Z,9.45
2023-05-16T17:26:32.267Z,9.55
2023-05-16T17:29:00.666Z,9.95
2023-05-16T17:31:28.200Z,10.67
2023-05-16T17:33:55.250Z,9.57
2023-05-16T17:36:22.147Z,9.95
2023-05-16T17:38:49.062Z,9.95
2023-05-16T17:41:16.758Z,10.10
2023-05-16T17:43:45.358Z,9.07
2023-05-16T17:46:13.149Z,9.80
2023-05-16T17:48:40.076Z,10.50
2023-05-16T17:51:06.976Z,9.90
2023-05-16T17:53:33.903Z,9.98
2023-05-16T17:56:00.804Z,9.60
2023-05-16T17:58:28.390Z,10.57
2023-05-16T18:00:55.435Z,12.30
2023-05-16T18:03:23.155Z,10.50
2023-05-16T18:05:51.271Z,10.55
2023-05-16T18:08:18.462Z,10.43
2023-05-16T18:10:52.247Z,11.10
2023-05-16T18:13:20.337Z,11.32
2023-05-16T18:15:47.266Z,11.07
2023-05-16T18:18:14.288Z,10.30
2023-05-16T18:20:41.229Z,11.98
2023-05-16T18:23:08.861Z,11.55
2023-05-16T18:25:35.836Z,11.30
2023-05-16T18:28:02.961Z,10.85
2023-05-16T18:30:29.857Z,10.95
2023-05-16T18:32:56.924Z,11.50
2023-05-16T18:35:24.382Z,12.15
2023-05-16T18:37:51.364Z,12.32
2023-05-16T18:40:18.461Z,10.55
2023-05-16T18:42:45.769Z,11.18
2023-05-16T18:45:12.714Z,10.65
2023-05-16T18:47:39.731Z,12.32
2023-05-16T18:50:07.661Z,11.90
2023-05-16T18:52:35.745Z,10.90
2023-05-16T18:55:02.667Z,11.73
2023-05-16T18:57:29.587Z,11.10
2023-05-16T18:59:56.932Z,12.65
2023-05-16T19:02:34.033Z,12.50
2023-05-16T19:05:08.996Z,11.60
2023-05-16T19:07:36.443Z,13.48
2023-05-16T19:10:04.588Z,10.98
2023-05-16T19:12:32.250Z,10.85
2023-05-16T19:14:59.191Z,11.60
2023-05-16T19:17:26.440Z,13.55
2023-05-16T19:19:53.430Z,14.57
2023-05-16T19:22:20.679Z,13.00
2023-05-16T19:24:48.227Z,12.48
2023-05-16T19:27:15.250Z,12.65
2023-05-16T19:29:42.203Z,13.13
2023-05-16T19:32:09.239Z,12.98
2023-05-16T19:34:36.387Z,12.07
2023-05-16T19:37:04.381Z,11.05
2023-05-16T19:39:32.577Z,14.05
2023-05-16T19:42:07.055Z,13.30
2023-05-16T19:44:35.416Z,13.05
2023-05-16T19:47:02.209Z,12.23
2023-05-16T19:49:31.987Z,11.27
2023-05-16T19:51:58.957Z,13.50
2023-05-16T19:54:26.387Z,13.13
2023-05-16T19:56:53.356Z,12.40
2023-05-16T19:59:20.971Z,13.30
2023-05-16T20:01:48.131Z,11.82
2023-05-16T20:04:15.193Z,13.25
2023-05-16T20:06:42.089Z,13.18
2023-05-16T20:09:10.965Z,11.98
2023-05-16T20:11:38.015Z,11.05
2023-05-16T20:14:04.899Z,12.80
2023-05-16T20:16:32.529Z,13.80
2023-05-16T20:18:59.694Z,11.23
2023-05-16T20:21:26.829Z,13.00
2023-05-16T20:23:53.749Z,13.93
2023-05-16T20:26:21.632Z,13.35
2023-05-16T20:28:48.554Z,13.30
2023-05-16T20:31:15.509Z,11.38
2023-05-16T20:33:42.453Z,13.30
2023-05-16T20:36:09.356Z,12.13
2023-05-16T20:38:36.285Z,12.70
2023-05-16T20:41:04.731Z,13.45
2023-05-16T20:43:31.768Z,12.70
2023-05-16T20:45:58.777Z,12.02
2023-05-16T20:48:26.132Z,12.95
2023-05-16T20:50:55.083Z,13.48
2023-05-16T20:53:22.584Z,12.32
2023-05-16T20:55:49.470Z,12.27
2023-05-16T20:58:16.454Z,12.45
2023-05-16T21:00:43.449Z,12.68
2023-05-16T21:03:12.615Z,11.07
2023-05-16T21:05:39.881Z,13.85
2023-05-16T21:08:07.467Z,11.00
2023-05-16T21:10:34.642Z,11.27
2023-05-16T21:13:01.544Z,10.93
2023-05-16T21:15:28.936Z,11.25
2023-05-16T21:17:56.276Z,10.35
2023-05-16T21:20:23.222Z,11.90
2023-05-16T21:22:50.113Z,10.55
2023-05-16T21:25:17.246Z,11.48
2023-05-16T21:27:44.136Z,10.55
2023-05-16T21:30:12.166Z,9.93
2023-05-16T21:32:39.780Z,11.15
2023-05-16T21:35:07.109Z,9.82
2023-05-16T21:37:34.204Z,10.00
2023-05-16T21:40:01.204Z,10.95
2023-05-16T21:42:28.097Z,8.98
2023-05-16T21:44:55.033Z,8.82
2023-05-16T21:47:21.970Z,10.35
2023-05-16T21:49:48.908Z,8.85
2023-05-16T21:52:15.793Z,10.48
2023-05-16T21:54:43.257Z,10.05
2023-05-16T21:57:10.173Z,8.90
2023-05-16T21:59:37.337Z,7.68
2023-05-16T22:02:04.482Z,8.65
2023-05-16T22:04:31.451Z,8.27
2023-05-16T22:06:58.689Z,7.97
2023-05-16T22:09:25.738Z,9.77
2023-05-16T22:11:52.685Z,7.18
2023-05-16T22:14:19.668Z,8.50
2023-05-16T22:16:46.877Z,7.82
2023-05-16T22:19:13.758Z,5.30
2023-05-16T22:21:43.965Z,7.28
2023-05-16T22:24:10.875Z,5.45
2023-05-16T22:26:38.239Z,10.23
2023-05-16T22:29:05.298Z,7.70
2023-05-16T22:31:32.118Z,7.40
2023-05-16T22:33:59.311Z,6.93
2023-05-16T22:36:26.263Z,7.40
2023-05-16T22:38:53.031Z,6.75
2023-05-16T22:41:19.847Z,7.28
2023-05-16T22:43:46.688Z,6.93
2023-05-16T22:46:15.663Z,6.50
2023-05-16T22:48:42.965Z,9.60
2023-05-16T22:51:09.881Z,7.65
2023-05-16T22:53:36.842Z,5.28
2023-05-16T22:56:04.115Z,6.20
2023-05-16T22:58:31.061Z,5.55
2023-05-16T23:00:58.393Z,6.28
2023-05-16T23:03:25.499Z,6.43
2023-05-16T23:05:52.357Z,5.28
2023-05-16T23:08:19.403Z,7.43
2023-05-16T23:10:46.292Z,5.32
2023-05-16T23:13:13.208Z,5.85
2023-05-16T23:15:40.074Z,5.28
2023-05-16T23:18:07.209Z,5.93
2023-05-16T23:20:34.194Z,6.25
2023-05-16T23:23:01.208Z,5.47
2023-05-16T23:25:28.318Z,6.60
2023-05-16T23:27:58.084Z,6.07
2023-05-16T23:30:25.090Z,6.93
2023-05-16T23:32:52.255Z,5.05
2023-05-16T23:35:19.593Z,5.32
2023-05-16T23:37:46.526Z,5.38
2023-05-16T23:40:13.536Z,5.72
2023-05-16T23:42:43.254Z,6.50
2023-05-16T23:45:10.610Z,4.47
2023-05-16T23:47:37.908Z,6.93
2023-05-16T23:50:06.161Z,5.53
2023-05-16T23:52:33.129Z,6.93
2023-05-16T23:55:00.166Z,4.97
2023-05-16T23:57:27.121Z,7.75
2023-05-16T23:59:54.307Z,5.75
